Terminal Aerodrome Forecast
Issued by NWS

Home | Current Version | Previous Version | Text Only | Print | Product List | Glossary On
Versions: 1 2 3 4 5 6 7 8 9 10 11 12 13 14 15 16 17 18 19 20 21 22 23 24 25 26 27
000
FTUS41 KBUF 271700
TAFJHW
TAF
KJHW 271738Z 2718/2818 29007KT P6SM -SHSN OVC025
     FM272100 28009KT 2SM -SHSN OVC012
     FM280300 30013KT 2SM -SHSN OVC007
     FM281200 30009KT 5SM -SHSN OVC012
     FM281600 28009KT 5SM BR VCSH BKN020
     FM281700 27009KT P6SM BKN020
      AMD LTD TO CLD VIS AND WIND=

USA.gov is the U.S. government's official web portal to all federal, state and local government web resources and services.